createdAt,value
2022-11-09T00:01:26.010Z,11.35
2022-11-09T00:03:28.601Z,11.54
2022-11-09T00:05:32.554Z,11.47
2022-11-09T00:07:35.161Z,11.58
2022-11-09T00:09:37.872Z,11.71
2022-11-09T00:11:40.506Z,11.70
2022-11-09T00:13:44.540Z,11.61
2022-11-09T00:15:47.228Z,11.60
2022-11-09T00:17:49.790Z,11.47
2022-11-09T00:19:52.459Z,11.41
2022-11-09T00:21:56.436Z,11.31
2022-11-09T00:23:59.148Z,11.31
2022-11-09T00:26:02.050Z,11.20
2022-11-09T00:28:04.953Z,11.20
2022-11-09T00:30:10.465Z,11.28
2022-11-09T00:32:13.068Z,11.39
2022-11-09T00:34:15.739Z,11.31
2022-11-09T00:36:19.403Z,11.21
2022-11-09T00:38:23.814Z,11.17
2022-11-09T00:40:26.558Z,11.11
2022-11-09T00:42:29.269Z,11.16
2022-11-09T00:44:31.816Z,11.07
2022-11-09T00:46:34.503Z,11.02
2022-11-09T00:48:37.468Z,10.95
2022-11-09T00:50:40.041Z,11.05
2022-11-09T00:52:42.644Z,10.83
2022-11-09T00:54:46.660Z,10.93
2022-11-09T00:56:49.261Z,10.91
2022-11-09T00:58:54.491Z,10.87
2022-11-09T01:00:58.499Z,10.92
2022-11-09T01:03:01.119Z,10.92
2022-11-09T01:05:03.921Z,10.79
2022-11-09T01:07:07.998Z,10.87
2022-11-09T01:09:10.660Z,10.84
2022-11-09T01:11:15.382Z,10.82
2022-11-09T01:13:20.683Z,10.74
2022-11-09T01:15:23.700Z,10.66
2022-11-09T01:17:26.415Z,10.68
2022-11-09T01:19:29.829Z,10.72
2022-11-09T01:21:32.500Z,10.71
2022-11-09T01:23:35.687Z,10.62
2022-11-09T01:25:38.369Z,10.72
2022-11-09T01:27:42.477Z,10.65
2022-11-09T01:29:45.070Z,10.60
2022-11-09T01:31:48.863Z,10.70
2022-11-09T01:33:51.904Z,10.66
2022-11-09T01:35:54.484Z,10.67
2022-11-09T01:37:57.080Z,10.66
2022-11-09T01:40:00.014Z,10.72
2022-11-09T01:42:02.681Z,10.78
2022-11-09T01:44:12.257Z,10.70
2022-11-09T01:46:20.795Z,10.78
2022-11-09T01:48:33.627Z,10.83
2022-11-09T01:50:42.779Z,10.84
2022-11-09T01:52:49.170Z,10.79
2022-11-09T01:54:56.137Z,10.85
2022-11-09T01:57:01.952Z,10.89
2022-11-09T01:59:10.013Z,11.15
2022-11-09T02:01:15.338Z,11.27
2022-11-09T02:03:22.440Z,11.19
2022-11-09T02:05:29.500Z,11.33
2022-11-09T02:07:32.294Z,11.27
2022-11-09T02:09:41.092Z,11.25
2022-11-09T02:11:43.702Z,11.20
2022-11-09T02:13:50.043Z,11.21
2022-11-09T02:15:54.425Z,11.24
2022-11-09T02:17:58.119Z,11.29
2022-11-09T02:20:01.108Z,11.25
2022-11-09T02:22:05.167Z,11.30
2022-11-09T02:24:08.307Z,11.31
2022-11-09T02:26:14.746Z,11.32
2022-11-09T02:28:18.619Z,11.31
2022-11-09T02:30:21.978Z,11.31
2022-11-09T02:32:28.663Z,11.44
2022-11-09T02:34:31.289Z,11.52
2022-11-09T02:36:34.245Z,11.47
2022-11-09T02:38:38.294Z,11.51
2022-11-09T02:40:43.678Z,11.49
2022-11-09T02:42:46.365Z,11.56
2022-11-09T02:44:52.075Z,11.67
2022-11-09T02:46:54.654Z,11.82
2022-11-09T02:48:57.325Z,11.89
2022-11-09T02:51:00.034Z,11.96
2022-11-09T02:53:02.729Z,12.07
2022-11-09T02:55:07.779Z,12.19
2022-11-09T02:57:10.646Z,12.43
2022-11-09T02:59:13.323Z,12.38
2022-11-09T03:01:16.030Z,12.41
2022-11-09T03:03:19.136Z,12.44
2022-11-09T03:05:21.985Z,12.35
2022-11-09T03:07:24.717Z,12.40
2022-11-09T03:09:27.361Z,12.46
2022-11-09T03:11:31.688Z,12.34
2022-11-09T03:13:34.356Z,12.37
2022-11-09T03:15:38.400Z,12.44
2022-11-09T03:17:41.167Z,12.21
2022-11-09T03:19:43.789Z,12.14
2022-11-09T03:21:46.546Z,12.14
2022-11-09T03:23:49.774Z,12.12
2022-11-09T03:25:52.378Z,12.01
2022-11-09T03:27:59.609Z,11.90
2022-11-09T03:30:02.185Z,11.87
2022-11-09T03:32:05.512Z,11.65
2022-11-09T03:34:08.099Z,11.70
2022-11-09T03:36:10.825Z,11.53
2022-11-09T03:38:13.497Z,11.45
2022-11-09T03:40:16.157Z,11.29
2022-11-09T03:42:18.792Z,11.02
2022-11-09T03:44:22.802Z,11.02
2022-11-09T03:46:25.437Z,10.88
2022-11-09T03:48:28.058Z,10.74
2022-11-09T03:50:32.734Z,10.64
2022-11-09T03:52:35.562Z,10.54
2022-11-09T03:54:38.204Z,10.53
2022-11-09T03:56:41.116Z,10.54
2022-11-09T03:58:43.684Z,10.48
2022-11-09T04:00:47.596Z,10.52
2022-11-09T04:02:50.402Z,10.48
2022-11-09T04:04:53.021Z,10.64
2022-11-09T04:06:55.721Z,10.63
2022-11-09T04:08:58.373Z,10.40
2022-11-09T04:11:00.946Z,10.35
2022-11-09T04:13:03.571Z,10.18
2022-11-09T04:15:07.256Z,10.16
2022-11-09T04:17:11.288Z,10.16
2022-11-09T04:19:13.915Z,10.18
2022-11-09T04:21:21.459Z,10.13
2022-11-09T04:23:26.447Z,10.08
2022-11-09T04:25:32.605Z,10.12
2022-11-09T04:27:35.455Z,10.10
2022-11-09T04:29:38.201Z,10.14
2022-11-09T04:31:40.882Z,10.09
2022-11-09T04:33:44.793Z,10.05
2022-11-09T04:35:47.460Z,10.03
2022-11-09T04:37:56.979Z,10.23
2022-11-09T04:39:59.706Z,10.05
2022-11-09T04:42:02.453Z,9.92
2022-11-09T04:44:05.252Z,9.80
2022-11-09T04:46:07.896Z,9.80
2022-11-09T04:48:11.677Z,9.83
2022-11-09T04:50:15.731Z,9.89
2022-11-09T04:52:18.332Z,9.86
2022-11-09T04:54:21.010Z,9.91
2022-11-09T04:56:23.623Z,9.90
2022-11-09T04:58:26.722Z,10.02
2022-11-09T05:00:29.402Z,10.00
2022-11-09T05:02:31.998Z,9.95
2022-11-09T05:04:34.717Z,9.93
2022-11-09T05:06:38.686Z,10.12
2022-11-09T05:08:41.365Z,10.15
2022-11-09T05:10:44.772Z,10.06
2022-11-09T05:12:47.395Z,10.16
2022-11-09T05:14:50.039Z,10.07
2022-11-09T05:16:52.680Z,10.11
2022-11-09T05:18:55.409Z,10.07
2022-11-09T05:21:00.156Z,9.91
2022-11-09T05:23:21.785Z,9.96
2022-11-09T05:25:24.670Z,10.00
2022-11-09T05:27:27.275Z,10.00
2022-11-09T05:29:29.930Z,10.16
2022-11-09T05:31:33.071Z,10.19
2022-11-09T05:33:35.740Z,10.14
2022-11-09T05:35:38.452Z,10.06
2022-11-09T05:37:41.367Z,10.08
2022-11-09T05:39:45.410Z,9.92
2022-11-09T05:41:48.068Z,9.78
2022-11-09T05:43:50.926Z,9.70
2022-11-09T05:45:53.539Z,9.71
2022-11-09T05:47:56.107Z,9.66
2022-11-09T05:49:58.689Z,9.70
2022-11-09T05:52:01.280Z,9.70
2022-11-09T05:54:04.025Z,9.67
2022-11-09T05:56:10.484Z,9.80
2022-11-09T05:58:13.187Z,9.67
2022-11-09T06:00:17.083Z,9.61
2022-11-09T06:02:20.025Z,9.65
2022-11-09T06:04:22.903Z,9.59
2022-11-09T06:06:25.508Z,9.68
2022-11-09T06:08:28.168Z,9.71
2022-11-09T06:10:30.783Z,9.66
2022-11-09T06:12:34.727Z,9.60
2022-11-09T06:14:37.371Z,9.57
2022-11-09T06:16:39.962Z,9.54
2022-11-09T06:18:42.559Z,9.58
2022-11-09T06:20:45.224Z,9.61
2022-11-09T06:22:59.924Z,9.64
2022-11-09T06:25:05.838Z,9.64
2022-11-09T06:27:08.471Z,9.63
2022-11-09T06:29:12.482Z,9.69
2022-11-09T06:31:17.037Z,9.64
2022-11-09T06:33:19.926Z,9.65
2022-11-09T06:35:22.813Z,9.67
2022-11-09T06:37:25.576Z,9.65
2022-11-09T06:39:28.231Z,9.64
2022-11-09T06:41:30.911Z,9.66
2022-11-09T06:43:33.683Z,9.76
2022-11-09T06:45:37.741Z,9.70
2022-11-09T06:47:40.337Z,9.70
2022-11-09T06:49:43.025Z,9.70
2022-11-09T06:51:45.604Z,9.68
2022-11-09T06:53:48.231Z,9.68
2022-11-09T06:55:51.174Z,9.75
2022-11-09T06:57:54.187Z,9.74
2022-11-09T06:59:56.885Z,9.75
2022-11-09T07:02:01.837Z,9.74
2022-11-09T07:04:04.934Z,9.71
2022-11-09T07:06:09.120Z,9.68
2022-11-09T07:08:12.082Z,9.67
2022-11-09T07:10:14.726Z,9.75
2022-11-09T07:12:17.407Z,9.73
2022-11-09T07:14:20.104Z,9.81
2022-11-09T07:16:22.843Z,9.88
2022-11-09T07:18:26.944Z,9.94
2022-11-09T07:20:30.358Z,10.01
2022-11-09T07:22:34.791Z,10.06
2022-11-09T07:24:37.374Z,10.10
2022-11-09T07:26:40.207Z,10.21
2022-11-09T07:28:43.199Z,10.22
2022-11-09T07:30:45.904Z,10.23
2022-11-09T07:35:12.963Z,10.43
2022-11-09T07:37:15.591Z,10.58
2022-11-09T07:39:18.389Z,10.56
2022-11-09T07:41:20.977Z,10.53
2022-11-09T07:43:23.695Z,10.61
2022-11-09T07:45:26.683Z,10.75
2022-11-09T07:47:29.285Z,10.88
2022-11-09T07:49:31.920Z,10.85
2022-11-09T07:51:37.163Z,11.01
2022-11-09T07:53:39.852Z,11.03
2022-11-09T07:55:42.976Z,10.94
2022-11-09T07:57:47.535Z,11.00
2022-11-09T07:59:51.729Z,11.05
2022-11-09T08:01:54.435Z,11.02
2022-11-09T08:03:57.100Z,11.00
2022-11-09T08:05:59.691Z,11.00
2022-11-09T08:08:06.211Z,10.97
2022-11-09T08:10:09.488Z,10.95
2022-11-09T08:12:12.092Z,10.94
2022-11-09T08:14:14.888Z,10.97
2022-11-09T08:16:17.802Z,10.96
2022-11-09T08:18:22.787Z,10.81
2022-11-09T08:20:25.780Z,10.80
2022-11-09T08:22:28.410Z,10.91
2022-11-09T08:24:32.388Z,10.85
2022-11-09T08:26:35.142Z,10.84
2022-11-09T08:28:37.817Z,10.85
2022-11-09T08:30:40.576Z,10.79
2022-11-09T08:32:44.164Z,10.84
2022-11-09T08:34:48.439Z,10.94
2022-11-09T08:36:51.205Z,10.90
2022-11-09T08:38:53.810Z,11.04
2022-11-09T08:41:00.833Z,11.03
2022-11-09T08:43:05.103Z,11.00
2022-11-09T08:45:08.659Z,10.99
2022-11-09T08:47:11.313Z,10.95
2022-11-09T08:49:14.172Z,11.06
2022-11-09T08:51:16.863Z,11.02
2022-11-09T08:53:19.613Z,11.20
2022-11-09T08:55:22.373Z,11.11
2022-11-09T08:57:26.906Z,11.15
2022-11-09T08:59:29.847Z,11.29
2022-11-09T09:01:32.506Z,11.21
2022-11-09T09:03:35.136Z,11.27
2022-11-09T09:05:38.028Z,11.38
2022-11-09T09:07:40.652Z,11.48
2022-11-09T09:09:43.258Z,11.37
2022-11-09T09:11:45.898Z,11.40
2022-11-09T09:13:49.869Z,11.47
2022-11-09T09:15:52.583Z,11.51
2022-11-09T09:17:55.254Z,11.47
2022-11-09T09:19:57.845Z,11.47
2022-11-09T09:22:02.670Z,11.76
2022-11-09T09:24:05.355Z,11.79
2022-11-09T09:26:08.040Z,11.43
2022-11-09T09:28:10.796Z,11.33
2022-11-09T09:30:15.126Z,11.40
2022-11-09T09:32:17.853Z,11.23
2022-11-09T09:34:20.539Z,11.17
2022-11-09T09:36:24.783Z,11.25
2022-11-09T09:38:27.789Z,11.22
2022-11-09T09:40:34.765Z,11.18
2022-11-09T09:42:39.017Z,11.19
2022-11-09T09:44:46.689Z,11.19
2022-11-09T09:46:58.376Z,11.18
2022-11-09T09:49:05.072Z,11.24
2022-11-09T09:51:11.586Z,11.33
2022-11-09T09:53:24.855Z,11.41
2022-11-09T09:55:34.734Z,11.48
2022-11-09T09:57:41.919Z,11.56
2022-11-09T09:59:49.245Z,11.50
2022-11-09T10:01:57.256Z,11.49
2022-11-09T10:04:00.101Z,11.53
2022-11-09T10:06:16.048Z,11.48
2022-11-09T10:08:26.588Z,11.44
2022-11-09T10:10:44.313Z,11.53
2022-11-09T10:13:03.938Z,11.62
2022-11-09T10:15:20.806Z,11.69
2022-11-09T10:17:36.425Z,11.69
2022-11-09T10:19:55.361Z,11.74
2022-11-09T10:22:08.609Z,11.86
2022-11-09T10:24:22.595Z,11.91
2022-11-09T10:26:40.179Z,12.02
2022-11-09T10:29:14.516Z,12.06
2022-11-09T10:31:16.177Z,12.15
2022-11-09T10:33:22.357Z,12.34
2022-11-09T10:35:30.650Z,12.27
2022-11-09T10:37:38.706Z,12.31
2022-11-09T10:39:45.322Z,12.41
2022-11-09T10:41:47.739Z,12.51
2022-11-09T10:43:50.340Z,12.51
2022-11-09T10:46:04.729Z,12.70
2022-11-09T10:48:09.371Z,12.69
2022-11-09T10:50:25.353Z,12.80
2022-11-09T10:52:44.268Z,12.90
2022-11-09T10:54:48.700Z,12.97
2022-11-09T10:57:06.080Z,12.94
2022-11-09T10:59:38.834Z,12.91
2022-11-09T11:01:41.458Z,12.95
2022-11-09T11:03:45.341Z,13.07
2022-11-09T11:05:58.734Z,13.11
2022-11-09T11:08:24.821Z,13.21
2022-11-09T11:10:27.517Z,13.19
2022-11-09T11:12:30.281Z,13.19
2022-11-09T11:14:35.014Z,13.31
2022-11-09T11:16:38.979Z,13.33
2022-11-09T11:18:46.546Z,13.30
2022-11-09T11:21:06.968Z,13.39
2022-11-09T11:23:14.636Z,13.44
2022-11-09T11:25:21.134Z,13.52
2022-11-09T11:27:28.627Z,13.52
2022-11-09T11:29:42.195Z,13.61
2022-11-09T11:31:45.083Z,13.63
2022-11-09T11:33:48.311Z,13.61
2022-11-09T11:35:59.715Z,13.71
2022-11-09T11:38:15.151Z,13.66
2022-11-09T11:40:23.658Z,13.60
2022-11-09T11:42:49.570Z,13.63
2022-11-09T11:45:38.401Z,13.62
2022-11-09T11:47:37.612Z,13.59
2022-11-09T11:50:00.116Z,13.55
2022-11-09T11:52:10.696Z,13.56
2022-11-09T11:54:23.983Z,13.68
2022-11-09T11:56:32.497Z,13.55
2022-11-09T11:58:49.888Z,13.55
2022-11-09T12:01:04.552Z,13.60
2022-11-09T12:03:30.357Z,13.60
2022-11-09T12:05:55.810Z,13.61
2022-11-09T12:08:08.888Z,13.64
2022-11-09T12:10:28.692Z,13.56
2022-11-09T12:12:43.498Z,13.60
2022-11-09T12:14:59.105Z,13.65
2022-11-09T12:17:08.750Z,13.72
2022-11-09T12:19:36.091Z,13.75
2022-11-09T12:21:45.591Z,13.73
2022-11-09T12:24:06.792Z,13.79
2022-11-09T12:26:23.871Z,13.81
2022-11-09T12:28:45.231Z,13.84
2022-11-09T12:30:59.726Z,13.89
2022-11-09T12:33:08.746Z,13.90
2022-11-09T12:35:22.884Z,13.85
2022-11-09T12:37:30.223Z,13.92
2022-11-09T12:39:41.395Z,13.96
2022-11-09T12:41:45.504Z,14.00
2022-11-09T12:43:53.502Z,13.99
2022-11-09T12:45:57.708Z,14.02
2022-11-09T12:48:06.609Z,14.15
2022-11-09T12:50:14.627Z,14.11
2022-11-09T12:52:22.005Z,14.18
2022-11-09T12:54:26.140Z,14.27
2022-11-09T12:56:34.517Z,14.29
2022-11-09T12:58:39.168Z,14.30
2022-11-09T13:00:53.416Z,14.34
2022-11-09T13:02:59.611Z,14.33
2022-11-09T13:05:05.913Z,14.32
2022-11-09T13:07:19.973Z,14.37
2022-11-09T13:09:35.890Z,14.27
2022-11-09T13:11:50.439Z,14.28
2022-11-09T13:13:53.082Z,14.19
2022-11-09T13:16:32.314Z,14.12
2022-11-09T13:18:52.571Z,14.06
2022-11-09T13:20:57.187Z,14.04
2022-11-09T13:23:02.862Z,14.04
2022-11-09T13:25:36.514Z,13.97
2022-11-09T13:27:43.268Z,13.98
2022-11-09T13:29:55.128Z,13.99
2022-11-09T13:32:01.748Z,13.98
2022-11-09T13:34:37.931Z,13.92
2022-11-09T13:36:40.521Z,13.91
2022-11-09T13:38:43.694Z,13.93
2022-11-09T13:40:48.388Z,13.89
2022-11-09T13:43:00.612Z,13.89
2022-11-09T13:45:29.801Z,13.84
2022-11-09T13:47:35.897Z,13.86
2022-11-09T13:49:43.455Z,13.79
2022-11-09T13:51:47.877Z,13.79
2022-11-09T13:53:58.701Z,13.75
2022-11-09T13:56:15.783Z,13.79
2022-11-09T13:58:26.487Z,13.76
2022-11-09T14:00:29.156Z,13.69
2022-11-09T14:02:31.772Z,13.72
2022-11-09T14:04:38.767Z,13.69
2022-11-09T14:06:41.622Z,13.70
2022-11-09T14:08:44.882Z,13.72
2022-11-09T14:11:00.930Z,13.67
2022-11-09T14:13:17.957Z,13.67
2022-11-09T14:15:28.838Z,13.64
2022-11-09T14:17:39.161Z,13.64
2022-11-09T14:19:52.239Z,13.69
2022-11-09T14:21:55.840Z,13.81
2022-11-09T14:24:03.637Z,13.77
2022-11-09T14:26:10.340Z,13.66
2022-11-09T14:28:23.061Z,13.62
2022-11-09T14:30:29.260Z,13.65
2022-11-09T14:32:34.374Z,13.56
2022-11-09T14:34:36.995Z,13.65
2022-11-09T14:36:43.090Z,13.60
2022-11-09T14:38:49.120Z,13.64
2022-11-09T14:40:53.944Z,13.58
2022-11-09T14:42:59.772Z,13.62
2022-11-09T14:45:02.536Z,13.56
2022-11-09T14:47:07.614Z,13.55
2022-11-09T14:49:11.722Z,13.49
2022-11-09T14:51:14.668Z,13.60
2022-11-09T14:53:22.356Z,13.48
2022-11-09T14:55:27.004Z,13.40
2022-11-09T14:57:29.726Z,13.42
2022-11-09T14:59:34.713Z,13.43
2022-11-09T15:01:37.543Z,13.33
2022-11-09T15:03:41.581Z,13.32
2022-11-09T15:05:44.311Z,13.28
2022-11-09T15:07:48.517Z,13.21
2022-11-09T15:09:54.356Z,13.24
2022-11-09T15:11:57.032Z,13.14
2022-11-09T15:14:01.165Z,13.16
2022-11-09T15:16:05.693Z,13.16
2022-11-09T15:18:19.386Z,13.13
2022-11-09T15:20:31.055Z,12.98
2022-11-09T15:22:50.269Z,12.91
2022-11-09T15:24:52.896Z,12.93
2022-11-09T15:26:57.411Z,12.96
2022-11-09T15:29:00.184Z,12.92
2022-11-09T15:31:12.616Z,12.90
2022-11-09T15:33:24.256Z,12.94
2022-11-09T15:35:29.066Z,12.86
2022-11-09T15:37:47.845Z,12.90
2022-11-09T15:39:50.602Z,12.95
2022-11-09T15:41:53.276Z,12.89
2022-11-09T15:43:56.308Z,12.88
2022-11-09T15:46:00.883Z,12.86
2022-11-09T15:48:03.617Z,12.83
2022-11-09T15:50:15.961Z,12.96
2022-11-09T15:52:19.945Z,12.82
2022-11-09T15:54:23.638Z,12.82
2022-11-09T15:56:26.329Z,12.88
2022-11-09T15:58:28.998Z,12.87
2022-11-09T16:00:31.831Z,12.78
2022-11-09T16:02:34.509Z,12.86
2022-11-09T16:04:37.234Z,12.80
2022-11-09T16:06:45.265Z,12.79
2022-11-09T16:08:53.268Z,12.80
2022-11-09T16:10:56.077Z,12.82
2022-11-09T16:12:58.745Z,12.78
2022-11-09T16:15:01.414Z,12.72
2022-11-09T16:17:04.546Z,12.82
2022-11-09T16:19:07.169Z,12.71
2022-11-09T16:21:10.866Z,12.70
2022-11-09T16:23:13.507Z,12.76
2022-11-09T16:25:17.954Z,12.70
2022-11-09T16:27:49.656Z,12.71
2022-11-09T16:29:43.434Z,12.65
2022-11-09T16:31:51.892Z,12.67
2022-11-09T16:33:55.189Z,12.66
2022-11-09T16:36:01.439Z,12.57
2022-11-09T16:38:04.574Z,12.57
2022-11-09T16:40:12.120Z,12.64
2022-11-09T16:42:17.869Z,12.52
2022-11-09T16:44:24.602Z,12.53
2022-11-09T16:46:30.201Z,12.52
2022-11-09T16:48:34.195Z,12.51
2022-11-09T16:50:37.262Z,12.46
2022-11-09T16:52:39.949Z,12.44
2022-11-09T16:54:42.670Z,12.49
2022-11-09T16:56:47.382Z,12.43
2022-11-09T16:58:51.451Z,12.39
2022-11-09T17:01:10.551Z,12.36
2022-11-09T17:03:14.905Z,12.32
2022-11-09T17:05:17.554Z,12.27
2022-11-09T17:07:20.828Z,12.24
2022-11-09T17:09:23.413Z,12.27
2022-11-09T17:11:26.216Z,12.20
2022-11-09T17:13:28.884Z,12.15
2022-11-09T17:15:32.920Z,12.17
2022-11-09T17:17:35.698Z,12.14
2022-11-09T17:19:38.527Z,12.13
2022-11-09T17:21:41.279Z,12.09
2022-11-09T17:23:44.260Z,12.09
2022-11-09T17:25:56.089Z,12.13
2022-11-09T17:27:58.787Z,12.11
2022-11-09T17:30:01.497Z,12.12
2022-11-09T17:32:05.717Z,12.11
2022-11-09T17:34:08.409Z,12.08
2022-11-09T17:36:12.858Z,12.07
2022-11-09T17:38:15.589Z,12.04
2022-11-09T17:40:19.938Z,12.04
2022-11-09T17:42:22.612Z,12.03
2022-11-09T17:44:25.361Z,12.03
2022-11-09T17:46:28.385Z,12.03
2022-11-09T17:48:32.577Z,12.00
2022-11-09T17:50:35.588Z,11.98
2022-11-09T17:52:38.354Z,11.93
2022-11-09T17:54:40.968Z,11.93
2022-11-09T17:56:43.628Z,11.94
2022-11-09T17:58:47.152Z,11.94
2022-11-09T18:00:50.460Z,11.97
2022-11-09T18:02:55.513Z,11.94
2022-11-09T18:04:59.598Z,11.92
2022-11-09T18:07:02.398Z,11.90
2022-11-09T18:11:30.161Z,11.86
2022-11-09T18:13:33.004Z,11.85
2022-11-09T18:15:38.166Z,11.83
2022-11-09T18:17:40.776Z,11.86
2022-11-09T18:19:43.458Z,11.88
2022-11-09T18:21:47.969Z,11.90
2022-11-09T18:23:50.568Z,11.95
2022-11-09T18:25:59.801Z,11.88
2022-11-09T18:28:02.809Z,11.90
2022-11-09T18:30:06.679Z,11.86
2022-11-09T18:32:09.312Z,11.84
2022-11-09T18:34:12.146Z,11.83
2022-11-09T18:36:16.816Z,11.78
2022-11-09T18:38:23.302Z,11.72
2022-11-09T18:40:26.930Z,11.76
2022-11-09T18:42:29.555Z,11.70
2022-11-09T18:44:32.270Z,11.70
2022-11-09T18:46:35.334Z,11.66
2022-11-09T18:48:38.478Z,11.66
2022-11-09T18:50:41.221Z,11.66
2022-11-09T18:52:43.847Z,11.60
2022-11-09T18:54:47.903Z,11.63
2022-11-09T18:56:50.519Z,11.66
2022-11-09T18:58:55.392Z,11.66
2022-11-09T19:01:00.533Z,11.66
2022-11-09T19:03:03.381Z,11.64
2022-11-09T19:05:06.832Z,11.61
2022-11-09T19:07:09.542Z,11.67
2022-11-09T19:09:35.009Z,11.61
2022-11-09T19:11:39.006Z,11.63
2022-11-09T19:13:41.753Z,11.64
2022-11-09T19:15:46.459Z,11.65
2022-11-09T19:17:49.914Z,11.63
2022-11-09T19:19:52.670Z,11.66
2022-11-09T19:21:56.679Z,11.68
2022-11-09T19:23:59.334Z,11.72
2022-11-09T19:26:02.324Z,11.74
2022-11-09T19:28:06.507Z,11.73
2022-11-09T19:30:10.180Z,11.67
2022-11-09T19:32:12.986Z,11.73
2022-11-09T19:34:17.358Z,11.66
2022-11-09T19:36:30.886Z,11.66
2022-11-09T19:38:33.969Z,11.60
2022-11-09T19:40:39.747Z,11.64
2022-11-09T19:42:42.746Z,11.68
2022-11-09T19:44:48.139Z,11.56
2022-11-09T19:46:52.519Z,11.61
2022-11-09T19:48:55.120Z,11.66
2022-11-09T19:50:57.946Z,11.65
2022-11-09T19:53:00.558Z,11.64
2022-11-09T19:55:03.233Z,11.57
2022-11-09T19:57:05.952Z,11.58
2022-11-09T19:59:11.752Z,11.65
2022-11-09T20:01:15.768Z,11.59
2022-11-09T20:03:18.491Z,11.57
2022-11-09T20:05:21.129Z,11.50
2022-11-09T20:07:23.783Z,11.45
2022-11-09T20:09:26.447Z,11.46
2022-11-09T20:11:47.556Z,11.44
2022-11-09T20:13:50.233Z,11.39
2022-11-09T20:15:52.896Z,11.45
2022-11-09T20:17:56.981Z,11.44
2022-11-09T20:19:59.719Z,11.43
2022-11-09T20:22:02.420Z,11.33
2022-11-09T20:24:06.376Z,11.39
2022-11-09T20:26:11.591Z,11.35
2022-11-09T20:28:14.265Z,11.35
2022-11-09T20:30:16.871Z,11.39
2022-11-09T20:32:21.652Z,11.35
2022-11-09T20:34:26.412Z,11.31
2022-11-09T20:36:29.326Z,11.31
2022-11-09T20:38:32.321Z,11.34
2022-11-09T20:40:35.024Z,11.34
2022-11-09T20:42:38.171Z,11.27
2022-11-09T20:44:40.992Z,11.30
2022-11-09T20:46:43.648Z,11.34
2022-11-09T20:48:53.907Z,11.38
2022-11-09T20:51:03.867Z,11.34
2022-11-09T20:53:06.597Z,11.29
2022-11-09T20:55:10.270Z,11.32
2022-11-09T20:57:13.027Z,11.37
2022-11-09T20:59:15.930Z,11.31
2022-11-09T21:01:20.653Z,11.25
2022-11-09T21:03:25.503Z,11.27
2022-11-09T21:05:28.184Z,11.22
2022-11-09T21:07:32.142Z,11.25
2022-11-09T21:09:34.838Z,11.24
2022-11-09T21:11:57.542Z,11.19
2022-11-09T21:14:00.152Z,11.26
2022-11-09T21:16:07.120Z,11.33
2022-11-09T21:18:10.320Z,11.16
2022-11-09T21:20:13.196Z,11.15
2022-11-09T21:22:15.828Z,11.24
2022-11-09T21:24:37.627Z,11.23
2022-11-09T21:26:58.056Z,11.15
2022-11-09T21:29:18.383Z,11.16
2022-11-09T21:31:21.013Z,11.31
2022-11-09T21:33:23.677Z,11.26
2022-11-09T21:35:26.387Z,11.16
2022-11-09T21:37:29.051Z,11.15
2022-11-09T21:39:33.127Z,11.15
2022-11-09T21:41:38.708Z,11.22
2022-11-09T21:43:41.333Z,11.22
2022-11-09T21:45:44.101Z,11.10
2022-11-09T21:47:46.734Z,11.14
2022-11-09T21:49:49.462Z,11.07
2022-11-09T21:51:52.231Z,11.10
2022-11-09T21:53:54.888Z,11.12
2022-11-09T21:56:00.424Z,11.08
2022-11-09T21:58:03.076Z,11.13
2022-11-09T22:00:06.675Z,11.07
2022-11-09T22:02:10.711Z,11.16
2022-11-09T22:04:13.440Z,11.09
2022-11-09T22:06:16.888Z,10.99
2022-11-09T22:08:19.649Z,11.00
2022-11-09T22:10:22.281Z,11.02
2022-11-09T22:12:43.867Z,11.08
2022-11-09T22:15:04.150Z,10.97
2022-11-09T22:17:08.584Z,11.12
2022-11-09T22:19:28.580Z,11.07
2022-11-09T22:21:32.311Z,10.98
2022-11-09T22:23:34.916Z,10.99
2022-11-09T22:25:37.647Z,10.94
2022-11-09T22:27:41.652Z,10.99
2022-11-09T22:29:44.261Z,10.99
2022-11-09T22:31:47.619Z,10.97
2022-11-09T22:33:50.234Z,10.92
2022-11-09T22:35:55.884Z,10.93
2022-11-09T22:38:02.283Z,10.98
2022-11-09T22:40:05.428Z,11.00
2022-11-09T22:42:08.215Z,11.04
2022-11-09T22:44:12.999Z,11.03
2022-11-09T22:46:17.381Z,11.00
2022-11-09T22:48:20.091Z,11.05
2022-11-09T22:50:22.721Z,11.13
2022-11-09T22:52:25.313Z,10.95
2022-11-09T22:54:27.953Z,10.91
2022-11-09T22:56:30.596Z,10.99
2022-11-09T22:58:33.343Z,11.01
2022-11-09T23:00:37.394Z,11.12
2022-11-09T23:02:40.157Z,11.02
2022-11-09T23:04:42.809Z,10.93
2022-11-09T23:06:45.475Z,10.82
2022-11-09T23:08:48.483Z,10.82
2022-11-09T23:10:55.835Z,10.92
2022-11-09T23:13:00.291Z,10.92
2022-11-09T23:15:05.924Z,10.77
2022-11-09T23:17:30.401Z,10.74
2022-11-09T23:19:31.933Z,10.72
2022-11-09T23:21:36.795Z,10.85
2022-11-09T23:23:40.219Z,10.77
2022-11-09T23:25:57.867Z,10.74
2022-11-09T23:28:00.881Z,10.74
2022-11-09T23:30:04.200Z,10.74
2022-11-09T23:32:06.925Z,10.73
2022-11-09T23:34:11.209Z,10.80
2022-11-09T23:36:13.852Z,10.87
2022-11-09T23:38:16.455Z,10.86
2022-11-09T23:40:19.207Z,10.81
2022-11-09T23:42:21.929Z,10.84
2022-11-09T23:44:24.620Z,10.79
2022-11-09T23:46:27.227Z,10.82
2022-11-09T23:48:30.241Z,10.70
2022-11-09T23:50:34.709Z,10.70
2022-11-09T23:52:37.402Z,10.72
2022-11-09T23:54:39.980Z,10.63
2022-11-09T23:56:42.567Z,10.63
2022-11-09T23:58:47.929Z,10.59
